createdAt,value
2018-09-21T01:21:45.784Z,8.95
2018-09-21T01:26:25.723Z,8.83
2018-09-21T01:31:05.700Z,8.65
2018-09-21T01:40:47.895Z,9.30
2018-09-21T01:45:28.668Z,9.00
2018-09-21T01:50:08.729Z,8.85
2018-09-21T01:54:48.458Z,9.40
2018-09-21T01:59:28.304Z,11.15
2018-09-21T02:04:08.188Z,10.32
2018-09-21T02:08:48.840Z,10.45
2018-09-21T02:13:29.529Z,10.48
2018-09-21T02:18:10.126Z,12.70
2018-09-21T02:22:50.543Z,11.30
2018-09-21T02:27:31.164Z,9.90
2018-09-21T02:32:10.950Z,9.80
2018-09-21T02:36:50.812Z,8.93
2018-09-21T02:41:31.152Z,8.18
2018-09-21T02:46:11.050Z,8.10
2018-09-21T02:50:51.064Z,8.78
2018-09-21T02:55:31.265Z,8.40
2018-09-21T03:00:11.353Z,8.28
2018-09-21T03:04:53.573Z,8.95
2018-09-21T03:09:33.693Z,8.38
2018-09-21T03:14:14.436Z,9.05
2018-09-21T03:18:54.387Z,8.85
2018-09-21T03:23:34.249Z,10.10
2018-09-21T03:28:13.988Z,9.28
2018-09-21T03:32:54.392Z,9.28
2018-09-21T03:37:34.874Z,9.28
2018-09-21T03:42:14.581Z,9.53
2018-09-21T03:46:54.978Z,9.35
2018-09-21T03:51:35.165Z,9.35
2018-09-21T03:56:14.984Z,9.85
2018-09-21T04:00:55.305Z,10.10
2018-09-21T04:05:35.475Z,9.48
2018-09-21T04:10:15.952Z,9.35
2018-09-21T04:14:55.680Z,9.60
2018-09-21T04:19:36.864Z,9.45
2018-09-21T04:24:16.859Z,9.68
2018-09-21T04:28:56.857Z,10.82
2018-09-21T04:33:36.925Z,9.40
2018-09-21T04:38:16.970Z,10.00
2018-09-21T04:42:57.023Z,10.43
2018-09-21T04:47:37.044Z,10.32
2018-09-21T04:52:17.162Z,9.98
2018-09-21T04:56:57.656Z,10.65
2018-09-21T05:01:38.071Z,11.97
2018-09-21T05:06:17.975Z,10.08
2018-09-21T05:10:58.763Z,10.43
2018-09-21T05:15:38.649Z,10.32
2018-09-21T05:20:18.590Z,11.05
2018-09-21T05:24:58.513Z,10.78
2018-09-21T05:29:38.549Z,10.75
2018-09-21T05:34:18.474Z,11.30
2018-09-21T05:38:58.545Z,10.53
2018-09-21T05:43:38.414Z,10.00
2018-09-21T05:48:18.368Z,9.83
2018-09-21T05:52:58.549Z,9.90
2018-09-21T05:57:38.211Z,9.05
2018-09-21T06:02:18.894Z,9.40
2018-09-21T06:06:59.019Z,9.03
2018-09-21T06:11:40.056Z,13.22
2018-09-21T06:16:19.864Z,9.60
2018-09-21T06:21:00.113Z,9.08
2018-09-21T06:25:40.065Z,9.88
2018-09-21T06:30:20.121Z,9.75
2018-09-21T06:35:00.176Z,9.85
2018-09-21T06:39:40.834Z,9.03
2018-09-21T06:44:21.017Z,9.78
2018-09-21T06:49:01.429Z,9.58
2018-09-21T06:53:41.880Z,9.98
2018-09-21T06:58:22.471Z,8.70
2018-09-21T07:03:02.936Z,8.03
2018-09-21T07:07:43.225Z,7.05
2018-09-21T07:12:23.160Z,6.50
2018-09-21T07:17:03.501Z,5.90
2018-09-21T07:21:43.935Z,6.50
2018-09-21T07:26:23.836Z,5.97
2018-09-21T07:31:03.898Z,6.08
2018-09-21T07:35:44.872Z,6.20
2018-09-21T07:40:24.765Z,6.65
2018-09-21T07:45:05.412Z,6.30
2018-09-21T07:49:45.641Z,5.30
2018-09-21T07:54:25.742Z,5.47
2018-09-21T07:59:05.816Z,4.90
2018-09-21T08:03:46.368Z,5.30
2018-09-21T08:08:26.351Z,5.17
2018-09-21T08:13:06.106Z,4.85
2018-09-21T08:17:47.251Z,5.47
2018-09-21T08:22:27.614Z,4.40
2018-09-21T08:27:09.328Z,4.65
2018-09-21T08:31:49.967Z,4.72
2018-09-21T08:36:30.329Z,5.75
2018-09-21T08:41:09.977Z,4.30
2018-09-21T08:45:50.156Z,3.70
2018-09-21T08:50:30.043Z,3.80
2018-09-21T08:55:10.621Z,4.15
2018-09-21T08:59:50.236Z,3.95
2018-09-21T09:04:30.261Z,3.40
2018-09-21T09:09:10.804Z,4.42
2018-09-21T09:13:51.885Z,3.45
2018-09-21T09:18:32.160Z,3.00
2018-09-21T09:23:12.036Z,3.30
2018-09-21T09:27:51.820Z,3.50
2018-09-21T09:32:31.853Z,3.17
2018-09-21T09:37:12.832Z,3.02
2018-09-21T09:41:52.952Z,3.02
2018-09-21T09:46:33.784Z,2.70
2018-09-21T09:51:14.171Z,2.50
2018-09-21T09:55:54.584Z,2.87
2018-09-21T10:00:40.720Z,2.50
2018-09-21T10:05:20.624Z,2.70
2018-09-21T10:10:00.628Z,3.00
2018-09-21T10:14:40.577Z,3.20
2018-09-21T10:19:21.084Z,2.65
2018-09-21T10:24:01.275Z,2.60
2018-09-21T10:28:42.049Z,2.70
2018-09-21T10:33:21.562Z,3.10
2018-09-21T10:38:02.049Z,2.83
2018-09-21T10:42:42.343Z,2.50
2018-09-21T10:47:22.244Z,3.05
2018-09-21T10:52:02.351Z,2.50
2018-09-21T10:56:42.595Z,2.77
2018-09-21T11:01:22.971Z,2.80
2018-09-21T11:06:04.035Z,2.80
2018-09-21T11:10:44.363Z,2.83
2018-09-21T11:15:26.175Z,3.30
2018-09-21T11:20:06.323Z,3.02
2018-09-21T11:24:46.092Z,4.00
2018-09-21T11:29:27.146Z,3.75
2018-09-21T11:34:07.451Z,3.70
2018-09-21T11:38:52.308Z,3.40
2018-09-21T11:43:33.136Z,4.90
2018-09-21T11:48:13.989Z,3.50
2018-09-21T11:52:54.484Z,3.83
2018-09-21T11:57:34.577Z,3.77
2018-09-21T12:02:14.776Z,1.87
2018-09-21T12:06:56.045Z,0.98
2018-09-21T12:11:35.924Z,1.10
2018-09-21T12:16:15.828Z,1.10
2018-09-21T12:25:52.574Z,1.30
2018-09-21T12:30:32.694Z,1.77
2018-09-21T12:35:13.187Z,1.90
2018-09-21T12:39:53.631Z,3.02
2018-09-21T12:44:34.224Z,1.80
2018-09-21T12:49:14.633Z,2.20
2018-09-21T12:53:56.250Z,2.40
2018-09-21T12:58:36.724Z,2.12
2018-09-21T13:03:18.073Z,1.92
2018-09-21T13:07:58.707Z,2.52
2018-09-21T13:12:38.572Z,2.50
2018-09-21T13:17:19.367Z,2.70
2018-09-21T13:21:59.404Z,2.50
2018-09-21T13:26:39.077Z,2.25
2018-09-21T13:31:19.340Z,2.47
2018-09-21T13:35:59.780Z,2.50
2018-09-21T13:40:39.680Z,2.08
2018-09-21T13:45:20.932Z,6.12
2018-09-21T13:50:02.573Z,2.52
2018-09-21T13:54:44.080Z,2.65
2018-09-21T13:59:24.270Z,2.30
2018-09-21T14:04:04.638Z,2.15
2018-09-21T14:08:45.303Z,2.40
2018-09-21T14:13:25.400Z,2.00
2018-09-21T14:18:05.560Z,2.37
2018-09-21T14:22:45.527Z,2.67
2018-09-21T14:27:25.492Z,3.20
2018-09-21T14:32:06.108Z,3.75
2018-09-21T14:36:46.151Z,2.33
2018-09-21T14:41:25.988Z,2.10
2018-09-21T14:46:06.712Z,2.92
2018-09-21T14:50:47.960Z,2.85
2018-09-21T14:55:28.024Z,2.45
2018-09-21T15:00:07.972Z,2.77
2018-09-21T15:04:48.536Z,3.10
2018-09-21T15:09:28.672Z,2.98
2018-09-21T15:14:08.791Z,2.75
2018-09-21T15:18:48.786Z,2.47
2018-09-21T15:23:30.001Z,2.60
2018-09-21T15:28:11.012Z,2.37
2018-09-21T15:32:50.833Z,2.45
2018-09-21T15:37:31.008Z,3.35
2018-09-21T15:42:11.447Z,2.50
2018-09-21T15:46:52.008Z,2.25
2018-09-21T15:51:32.121Z,2.10
2018-09-21T15:56:12.572Z,3.08
2018-09-21T16:00:52.804Z,1.65
2018-09-21T16:05:32.860Z,1.50
2018-09-21T16:10:13.437Z,1.30
2018-09-21T16:14:53.712Z,1.12
2018-09-21T16:19:33.373Z,1.30
2018-09-21T16:24:14.073Z,1.30
2018-09-21T16:28:54.960Z,1.20
2018-09-21T16:33:34.948Z,1.00
2018-09-21T16:38:14.743Z,1.22
2018-09-21T16:42:54.636Z,1.40
2018-09-21T16:47:34.768Z,1.20
2018-09-21T16:52:14.550Z,1.12
2018-09-21T16:56:55.104Z,1.20
2018-09-21T17:01:35.391Z,2.95
2018-09-21T17:06:15.980Z,1.17
2018-09-21T17:10:56.136Z,1.75
2018-09-21T17:15:36.356Z,1.50
2018-09-21T17:20:16.985Z,1.30
2018-09-21T17:24:57.582Z,1.50
2018-09-21T17:29:38.175Z,1.70
2018-09-21T17:34:17.881Z,2.37
2018-09-21T17:38:58.752Z,1.55
2018-09-21T17:43:38.688Z,1.70
2018-09-21T17:48:18.641Z,1.60
2018-09-21T17:52:58.713Z,1.70
2018-09-21T17:57:38.771Z,2.10
2018-09-21T18:02:19.258Z,1.95
2018-09-21T18:06:59.224Z,2.83
2018-09-21T18:11:40.348Z,2.50
2018-09-21T18:16:20.501Z,2.10
2018-09-21T18:21:00.648Z,1.90
2018-09-21T18:25:40.542Z,1.70
2018-09-21T18:30:20.765Z,1.55
2018-09-21T18:35:00.414Z,1.45
2018-09-21T18:39:40.235Z,1.57
2018-09-21T18:44:20.297Z,1.92
2018-09-21T18:49:00.097Z,1.80
2018-09-21T18:53:40.698Z,2.27
2018-09-21T18:58:20.796Z,2.17
2018-09-21T19:03:00.628Z,2.30
2018-09-21T19:07:41.326Z,1.80
2018-09-21T19:12:21.108Z,1.75
2018-09-21T19:17:00.921Z,1.70
2018-09-21T19:21:41.588Z,1.77
2018-09-21T19:26:21.480Z,1.67
2018-09-21T19:31:01.352Z,1.95
2018-09-21T19:35:41.556Z,2.45
2018-09-21T19:40:21.368Z,3.17
2018-09-21T19:45:01.542Z,2.30
2018-09-21T19:49:42.263Z,2.75
2018-09-21T19:54:22.691Z,2.52
2018-09-21T19:59:02.570Z,2.10
2018-09-21T20:03:42.308Z,2.02
2018-09-21T20:08:22.340Z,1.95
2018-09-21T20:13:03.145Z,2.40
2018-09-21T20:17:43.120Z,2.72
2018-09-21T20:22:23.382Z,2.95
2018-09-21T20:27:03.301Z,3.25
2018-09-21T20:31:48.485Z,5.37
2018-09-21T20:36:28.700Z,5.72
2018-09-21T20:41:09.552Z,4.95
2018-09-21T20:45:50.544Z,5.13
2018-09-21T20:50:30.709Z,5.30
2018-09-21T20:55:11.466Z,5.53
2018-09-21T20:59:51.664Z,3.77
2018-09-21T21:04:32.487Z,3.20
2018-09-21T21:09:13.232Z,2.57
2018-09-21T21:13:53.115Z,2.27
2018-09-21T21:18:33.433Z,2.85
2018-09-21T21:23:13.319Z,2.80
2018-09-21T21:27:54.334Z,3.73
2018-09-21T21:32:35.578Z,3.05
2018-09-21T21:37:15.662Z,2.53
2018-09-21T21:41:55.939Z,2.10
2018-09-21T21:46:36.156Z,2.33
2018-09-21T21:51:16.092Z,2.10
2018-09-21T21:55:57.349Z,2.00
2018-09-21T22:00:43.216Z,1.80
2018-09-21T22:05:24.572Z,2.00
2018-09-21T22:10:06.764Z,1.90
2018-09-21T22:14:46.885Z,1.73
2018-09-21T22:19:27.839Z,2.00
2018-09-21T22:24:08.593Z,1.73
2018-09-21T22:28:48.520Z,1.80
2018-09-21T22:33:28.732Z,1.77
2018-09-21T22:38:08.651Z,1.40
2018-09-21T22:42:48.709Z,1.63
2018-09-21T22:47:28.933Z,1.73
2018-09-21T22:52:09.845Z,1.80
2018-09-21T22:56:49.581Z,1.70
2018-09-21T23:01:29.302Z,1.67
2018-09-21T23:06:09.427Z,1.70
2018-09-21T23:10:49.607Z,1.80
2018-09-21T23:15:33.018Z,1.50
2018-09-21T23:20:13.886Z,1.80
2018-09-21T23:24:53.549Z,1.83
2018-09-21T23:29:33.584Z,2.07
2018-09-21T23:34:18.314Z,1.97
2018-09-21T23:38:59.167Z,2.00
2018-09-21T23:43:39.025Z,1.97
2018-09-21T23:48:19.315Z,2.37
2018-09-21T23:52:59.247Z,1.83
2018-09-21T23:57:39.129Z,2.10
